Time;durP1;ratioP1;P1;durP2;ratioP2;P2;SDS_P1;SDS_P2;PMS_P1;PMS_P2;Temp;Humidity;BMP_temperature;BMP_pressure;BME280_temperature;BME280_humidity;BME280_pressure;Samples;Min_cycle;Max_cycle;Signal;HPM_P1;HPM_P2
2022/06/10 00:00:56;;;;;;;30.35;17.67;;;15.90;99.90;;;;;;10409421;28;20028;-86
2022/06/10 00:06:00;;;;;;;36.17;18.73;;;15.90;99.90;;;;;;10406642;28;20037;-83
2022/06/10 00:11:02;;;;;;;33.28;17.63;;;15.90;99.90;;;;;;10406216;28;20041;-85
2022/06/10 00:16:04;;;;;;;35.35;18.05;;;15.80;99.90;;;;;;10401583;28;20464;-85
2022/06/10 00:21:08;;;;;;;31.58;16.77;;;15.80;99.90;;;;;;10407314;28;20018;-85
2022/06/10 00:26:10;;;;;;;26.75;15.85;;;15.70;99.90;;;;;;10410612;28;20013;-87
2022/06/10 00:31:16;;;;;;;56.22;20.05;;;15.60;99.90;;;;;;10398169;28;20057;-86
2022/06/10 00:36:16;;;;;;;54.65;19.45;;;15.40;99.90;;;;;;10425285;28;20083;-85
2022/06/10 00:41:18;;;;;;;37.40;17.45;;;15.20;99.90;;;;;;10408507;28;20029;-84
2022/06/10 00:46:35;;;;;;;57.50;20.63;;;15.10;99.90;;;;;;10392719;28;20095;-83
2022/06/10 00:51:48;;;;;;;44.78;21.20;;;15.00;99.90;;;;;;10408091;28;20033;-84
2022/06/10 00:57:03;;;;;;;60.20;20.58;;;14.90;99.90;;;;;;10405392;28;20129;-86
2022/06/10 01:02:19;;;;;;;64.80;23.23;;;14.80;99.90;;;;;;10397446;28;20037;-86
2022/06/10 01:07:21;;;;;;;;;;;14.80;99.90;;;;;;10407452;28;20038;-86
2022/06/10 01:12:31;;;;;;;69.72;22.55;;;14.80;99.90;;;;;;10406247;28;19912;-88
2022/06/10 01:17:47;;;;;;;50.25;24.92;;;14.90;99.90;;;;;;10387030;28;20037;-84
2022/06/10 01:23:09;;;;;;;59.72;25.05;;;15.00;99.90;;;;;;10408087;28;20038;-85
2022/06/10 01:28:26;;;;;;;68.00;28.80;;;15.10;99.90;;;;;;10396242;28;20120;-86
2022/06/10 01:33:45;;;;;;;51.15;23.73;;;15.20;99.90;;;;;;10392664;28;20053;-86
2022/06/10 01:38:51;;;;;;;62.55;26.02;;;15.30;99.90;;;;;;10405637;28;20033;-86
2022/06/10 01:44:17;;;;;;;73.50;26.83;;;15.40;99.90;;;;;;10407205;28;20031;-84
2022/06/10 01:49:20;;;;;;;63.63;27.15;;;15.40;99.90;;;;;;10403122;28;20043;-84
2022/06/10 01:54:32;;;;;;;67.40;29.23;;;15.40;99.90;;;;;;10404972;28;20397;-88
2022/06/10 01:59:41;;;;;;;58.22;26.13;;;15.40;99.90;;;;;;10406969;28;20495;-88
2022/06/10 02:04:48;;;;;;;60.70;26.52;;;15.40;99.90;;;;;;10404444;28;20036;-90
2022/06/10 02:09:55;;;;;;;75.57;29.63;;;15.50;99.90;;;;;;10394293;28;20028;-85
2022/06/10 02:15:03;;;;;;;60.20;27.17;;;15.50;99.90;;;;;;10391835;28;20045;-85
2022/06/10 02:20:09;;;;;;;69.35;29.30;;;15.50;99.90;;;;;;10414600;28;20040;-83
2022/06/10 02:25:22;;;;;;;;;;;15.50;99.90;;;;;;10392163;28;20031;-87
2022/06/10 02:30:29;;;;;;;74.82;30.15;;;15.50;99.90;;;;;;10394294;28;19971;-85
2022/06/10 02:35:38;;;;;;;59.95;27.10;;;15.60;99.90;;;;;;10396316;28;20167;-85
2022/06/10 02:41:00;;;;;;;52.30;27.05;;;15.60;99.90;;;;;;10406357;28;20036;-88
2022/06/10 02:46:19;;;;;;;68.75;29.17;;;15.70;99.90;;;;;;10388121;28;20034;-84
2022/06/10 02:51:21;;;;;;;62.67;27.52;;;15.70;99.90;;;;;;10376968;28;20596;-86
2022/06/10 02:56:24;;;;;;;59.55;27.33;;;15.80;99.90;;;;;;10389644;28;20049;-85
2022/06/10 03:01:40;;;;;;;55.78;25.02;;;15.80;99.90;;;;;;10392316;28;20029;-87
2022/06/10 03:06:49;;;;;;;60.47;28.13;;;15.90;99.90;;;;;;10404225;28;20441;-86
2022/06/10 03:12:08;;;;;;;56.95;26.48;;;16.00;99.90;;;;;;10404052;28;20032;-91
2022/06/10 03:17:22;;;;;;;57.78;26.13;;;16.00;99.90;;;;;;10392391;28;20041;-84
2022/06/10 03:22:47;;;;;;;51.40;25.52;;;16.10;99.90;;;;;;10396504;28;20040;-85
2022/06/10 03:28:16;;;;;;;48.47;23.97;;;16.20;99.90;;;;;;10391790;28;20156;-84
2022/06/10 03:33:59;;;;;;;68.85;29.63;;;16.20;99.90;;;;;;10392343;28;20312;-84
2022/06/10 03:39:01;;;;;;;71.97;32.03;;;16.20;99.90;;;;;;10381026;28;20044;-85
2022/06/10 03:44:14;;;;;;;84.78;32.33;;;16.20;99.90;;;;;;10387678;28;20503;-84
2022/06/10 03:49:17;;;;;;;87.93;35.92;;;16.30;99.90;;;;;;10391345;28;20029;-87
2022/06/10 03:54:19;;;;;;;84.55;34.65;;;16.30;99.90;;;;;;10404133;28;20033;-84
2022/06/10 03:59:20;;;;;;;97.43;37.33;;;16.30;99.90;;;;;;10393447;28;20069;-87
2022/06/10 04:04:21;;;;;;;101.20;41.17;;;16.20;99.90;;;;;;10391114;28;20113;-84
2022/06/10 04:09:22;;;;;;;96.50;40.67;;;16.30;99.90;;;;;;10389351;28;20045;-85
2022/06/10 04:14:23;;;;;;;129.25;43.80;;;16.30;99.90;;;;;;10402827;28;20045;-84
2022/06/10 04:19:24;;;;;;;115.38;44.47;;;16.30;99.90;;;;;;10381034;28;20045;-88
2022/06/10 04:24:25;;;;;;;102.93;40.58;;;16.40;99.90;;;;;;10394195;28;20034;-87
2022/06/10 04:29:26;;;;;;;97.55;38.97;;;16.40;99.90;;;;;;10396998;28;20030;-86
2022/06/10 04:34:27;;;;;;;88.05;38.83;;;16.40;99.90;;;;;;10407084;28;20440;-83
2022/06/10 04:39:27;;;;;;;91.95;38.95;;;16.50;99.90;;;;;;10411726;28;20092;-86
2022/06/10 04:44:28;;;;;;;94.30;38.58;;;16.50;99.90;;;;;;10401408;28;20022;-84
2022/06/10 04:49:30;;;;;;;93.78;38.50;;;16.50;99.90;;;;;;10404758;28;20036;-85
2022/06/10 04:54:30;;;;;;;98.60;40.67;;;16.50;99.90;;;;;;10381287;28;20469;-85
2022/06/10 04:59:31;;;;;;;94.82;41.33;;;16.60;99.90;;;;;;10368816;28;20038;-84
2022/06/10 05:04:32;;;;;;;105.50;41.67;;;16.60;99.90;;;;;;10401474;28;20037;-85
2022/06/10 05:09:32;;;;;;;124.43;46.58;;;16.60;99.90;;;;;;10409525;28;20101;-84
2022/06/10 05:14:34;;;;;;;113.68;44.83;;;16.70;99.90;;;;;;10410249;28;20037;-86
2022/06/10 05:19:35;;;;;;;113.57;43.85;;;16.70;99.90;;;;;;10459433;23;20049;-85
2022/06/10 05:24:35;;;;;;;98.80;42.00;;;16.70;99.90;;;;;;10408853;28;20033;-84
2022/06/10 05:29:37;;;;;;;89.40;40.10;;;16.80;99.90;;;;;;10404990;28;20465;-87
2022/06/10 05:34:47;;;;;;;91.68;39.42;;;16.80;99.90;;;;;;10438479;28;20424;-84
2022/06/10 05:39:48;;;;;;;81.88;36.28;;;16.90;99.90;;;;;;10413711;28;20033;-83
2022/06/10 05:44:51;;;;;;;82.75;37.47;;;16.90;99.90;;;;;;10411826;28;20044;-85
2022/06/10 05:49:55;;;;;;;83.07;38.35;;;16.90;99.90;;;;;;10414578;28;20037;-85
2022/06/10 05:55:00;;;;;;;77.82;37.80;;;16.90;99.90;;;;;;10425610;28;20049;-84
2022/06/10 06:00:01;;;;;;;90.00;37.37;;;16.90;99.90;;;;;;10410440;28;20067;-83
2022/06/10 06:05:02;;;;;;;91.70;41.33;;;16.90;99.90;;;;;;10427679;28;20325;-83
2022/06/10 06:10:04;;;;;;;102.15;43.97;;;16.80;99.90;;;;;;10424310;28;20028;-87
2022/06/10 06:15:05;;;;;;;114.10;48.15;;;16.80;99.90;;;;;;10422382;28;20037;-87
2022/06/10 06:20:06;;;;;;;107.97;46.47;;;16.70;99.90;;;;;;10415726;28;20045;-87
2022/06/10 06:25:10;;;;;;;100.95;46.55;;;16.70;99.90;;;;;;10421409;28;20032;-88
2022/06/10 06:30:34;;;;;;;92.47;43.72;;;16.80;99.90;;;;;;10429137;28;20441;-89
2022/06/10 06:35:36;;;;;;;71.13;37.80;;;16.80;99.90;;;;;;10440555;28;20033;-90
2022/06/10 06:40:37;;;;;;;84.05;40.40;;;16.90;99.90;;;;;;10432320;28;20029;-88
2022/06/10 06:45:40;;;;;;;62.60;34.08;;;16.90;99.90;;;;;;10418878;28;20481;-87
2022/06/10 06:50:45;;;;;;;61.33;32.85;;;16.80;99.90;;;;;;10407814;28;20052;-87
2022/06/10 06:55:46;;;;;;;57.95;31.10;;;16.80;99.90;;;;;;10421088;28;20592;-86
2022/06/10 07:00:47;;;;;;;63.78;33.60;;;16.80;99.90;;;;;;10428038;28;20068;-87
2022/06/10 07:05:49;;;;;;;55.47;29.70;;;16.80;99.90;;;;;;10407062;28;20493;-86
2022/06/10 07:10:50;;;;;;;43.25;24.05;;;16.80;99.90;;;;;;10418239;28;20025;-87
2022/06/10 07:15:52;;;;;;;35.35;23.00;;;16.80;99.90;;;;;;10423358;28;20053;-89
2022/06/10 07:20:53;;;;;;;32.15;20.80;;;16.70;99.90;;;;;;10421844;28;20036;-87
2022/06/10 07:25:54;;;;;;;31.45;20.25;;;16.80;99.90;;;;;;10418581;28;20037;-87
2022/06/10 07:30:54;;;;;;;32.92;21.73;;;16.80;99.90;;;;;;10428610;28;20025;-87
2022/06/10 07:35:56;;;;;;;36.58;22.73;;;16.90;99.90;;;;;;10412366;28;20049;-86
2022/06/10 07:46:19;;;;;;;28.30;19.48;;;17.10;99.90;;;;;;10407162;28;20037;-88
2022/06/10 07:51:21;;;;;;;30.70;21.45;;;17.20;99.90;;;;;;10415247;28;20075;-87
2022/06/10 07:56:22;;;;;;;37.03;24.20;;;17.30;99.90;;;;;;10425699;28;20048;-87
2022/06/10 08:01:23;;;;;;;34.78;23.02;;;17.20;99.90;;;;;;10425834;28;20075;-86
2022/06/10 08:06:27;;;;;;;41.53;25.90;;;17.20;99.90;;;;;;10450012;28;20025;-88
2022/06/10 08:11:27;;;;;;;36.72;23.98;;;17.20;99.90;;;;;;10424343;28;20033;-87
2022/06/10 08:16:28;;;;;;;45.78;28.90;;;17.10;99.90;;;;;;10448760;28;20053;-87
2022/06/10 08:26:49;;;;;;;54.17;30.35;;;17.10;99.90;;;;;;10411996;28;20033;-86
2022/06/10 08:31:50;;;;;;;52.20;32.10;;;17.10;99.90;;;;;;10443636;28;20037;-89
2022/06/10 08:36:50;;;;;;;44.03;28.17;;;17.10;99.90;;;;;;10431711;28;20469;-88
2022/06/10 08:42:00;;;;;;;43.45;27.05;;;17.20;99.90;;;;;;10437088;28;20460;-86
2022/06/10 08:47:34;;;;;;;45.13;27.77;;;17.40;99.90;;;;;;10410489;28;20032;-86
2022/06/10 08:52:52;;;;;;;45.90;27.58;;;17.30;99.90;;;;;;10435707;28;20525;-87
2022/06/10 08:57:56;;;;;;;46.38;26.52;;;17.30;99.90;;;;;;10438792;28;20392;-89
2022/06/10 09:03:16;;;;;;;43.40;26.27;;;17.10;99.90;;;;;;10422541;28;20108;-88
2022/06/10 09:08:21;;;;;;;40.17;25.42;;;17.20;99.90;;;;;;10449551;28;20114;-89
2022/06/10 09:13:27;;;;;;;38.45;24.52;;;17.20;99.90;;;;;;10442219;28;20058;-86
2022/06/10 09:18:39;;;;;;;38.78;26.33;;;17.30;99.90;;;;;;10434542;28;20152;-85
2022/06/10 09:23:45;;;;;;;41.33;27.27;;;17.40;99.90;;;;;;10435624;28;20040;-86
2022/06/10 09:28:46;;;;;;;37.25;24.20;;;17.50;99.90;;;;;;10409203;28;20112;-86
2022/06/10 09:34:10;;;;;;;37.00;23.85;;;17.80;99.90;;;;;;10441572;28;20796;-85
2022/06/10 09:45:22;;;;;;;36.33;23.50;;;17.90;99.90;;;;;;10421005;28;20037;-87
2022/06/10 09:50:31;;;;;;;33.97;23.90;;;17.90;99.90;;;;;;10432917;28;20121;-87
2022/06/10 09:55:43;;;;;;;33.13;23.92;;;18.20;99.90;;;;;;10409647;28;20029;-86
2022/06/10 10:01:03;;;;;;;32.53;23.67;;;18.30;99.90;;;;;;10443280;28;20029;-85
2022/06/10 10:06:07;;;;;;;31.83;22.00;;;18.20;99.90;;;;;;10425565;28;20017;-86
2022/06/10 10:11:31;;;;;;;31.75;21.58;;;18.20;99.90;;;;;;10426793;28;20029;-88
2022/06/10 10:16:51;;;;;;;27.42;19.08;;;18.40;99.90;;;;;;10409959;28;20156;-86
2022/06/10 10:22:12;;;;;;;28.15;19.48;;;18.70;99.90;;;;;;10419783;28;20751;-87
2022/06/10 10:27:20;;;;;;;29.55;20.20;;;18.90;99.90;;;;;;10432790;28;20116;-86
2022/06/10 10:32:25;;;;;;;29.73;22.77;;;18.80;99.90;;;;;;10432233;28;20119;-86
2022/06/10 10:37:30;;;;;;;27.65;20.15;;;18.70;99.90;;;;;;10406554;28;20176;-87
2022/06/10 10:42:35;;;;;;;29.60;19.60;;;18.70;99.90;;;;;;10410798;28;20500;-88
2022/06/10 10:47:37;;;;;;;29.25;21.20;;;18.70;99.90;;;;;;10410049;28;20034;-90
2022/06/10 10:52:44;;;;;;;25.60;18.13;;;18.70;99.90;;;;;;10427839;28;20037;-86
2022/06/10 10:58:04;;;;;;;21.95;15.90;;;18.90;99.90;;;;;;10432908;28;20032;-91
2022/06/10 11:03:05;;;;;;;20.63;16.90;;;19.40;99.90;;;;;;10429748;28;20029;-88
2022/06/10 11:08:19;;;;;;;16.10;13.75;;;19.80;99.90;;;;;;10431754;28;20397;-87
2022/06/10 11:13:31;;;;;;;17.05;12.93;;;20.10;99.90;;;;;;10436990;28;20036;-86
2022/06/10 11:18:35;;;;;;;17.52;13.48;;;20.00;99.90;;;;;;10424680;28;20568;-91
2022/06/10 11:23:36;;;;;;;18.73;14.07;;;20.10;99.90;;;;;;10429752;28;20021;-89
2022/06/10 11:28:39;;;;;;;17.30;13.60;;;20.10;99.90;;;;;;10405030;28;20026;-88
2022/06/10 11:33:45;;;;;;;18.08;12.77;;;19.70;99.90;;;;;;10423676;28;20384;-88
2022/06/10 11:38:53;;;;;;;;;;;19.50;99.90;;;;;;10440367;28;20037;-87
2022/06/10 11:44:16;;;;;;;15.55;11.82;;;19.70;99.90;;;;;;10442557;28;19905;-92
2022/06/10 11:49:34;;;;;;;16.40;12.07;;;19.70;99.90;;;;;;10434465;28;20115;-87
2022/06/10 11:54:42;;;;;;;13.88;11.57;;;19.80;99.90;;;;;;10444729;28;20060;-88
2022/06/10 12:00:02;;;;;;;12.88;9.82;;;20.40;99.90;;;;;;10442617;28;20543;-86
2022/06/10 12:05:05;;;;;;;12.05;10.73;;;20.80;99.90;;;;;;10430865;28;20021;-90
2022/06/10 12:10:12;;;;;;;11.02;9.45;;;20.40;99.90;;;;;;10415860;28;20037;-89
2022/06/10 12:15:23;;;;;;;10.20;9.20;;;20.70;99.90;;;;;;10433864;28;20048;-87
2022/06/10 12:20:37;;;;;;;10.95;9.23;;;20.80;99.90;;;;;;10432807;28;20116;-87
2022/06/10 12:25:57;;;;;;;8.90;7.80;;;21.00;99.90;;;;;;10426373;28;20041;-91
2022/06/10 12:31:07;;;;;;;11.45;7.50;;;21.10;99.90;;;;;;10428824;28;20050;-89
2022/06/10 12:36:14;;;;;;;12.25;8.20;;;20.80;99.90;;;;;;10434229;28;20530;-88
2022/06/10 12:41:27;;;;;;;9.57;8.27;;;20.40;99.90;;;;;;10438228;28;20029;-91
2022/06/10 12:46:54;;;;;;;7.45;6.57;;;20.30;99.90;;;;;;10435429;28;20060;-88
2022/06/10 12:52:08;;;;;;;8.23;7.43;;;20.30;99.90;;;;;;10434281;28;20027;-88
2022/06/10 12:57:39;;;;;;;11.48;7.18;;;20.50;99.90;;;;;;10425765;28;20040;-86
2022/06/10 13:02:52;;;;;;;8.65;7.30;;;20.50;99.90;;;;;;10414255;28;20044;-87
2022/06/10 13:07:55;;;;;;;9.35;7.90;;;20.30;99.90;;;;;;10438259;28;20120;-85
2022/06/10 13:13:15;;;;;;;9.45;7.47;;;20.10;99.90;;;;;;10425189;28;20025;-86
2022/06/10 13:18:15;;;;;;;8.43;7.53;;;20.10;99.90;;;;;;10430437;28;20060;-87
2022/06/10 13:23:23;;;;;;;9.55;7.50;;;20.10;99.90;;;;;;10424981;28;20029;-84
2022/06/10 13:28:27;;;;;;;10.05;6.97;;;20.20;99.90;;;;;;10409422;28;20026;-88
2022/06/10 13:33:28;;;;;;;13.30;6.93;;;20.60;99.90;;;;;;10416277;28;20116;-85
2022/06/10 13:38:34;;;;;;;8.20;6.57;;;20.70;99.90;;;;;;10422459;28;20159;-86
2022/06/10 13:43:35;;;;;;;6.90;5.43;;;20.70;99.90;;;;;;10419555;28;20643;-84
2022/06/10 13:48:35;;;;;;;6.05;5.45;;;20.90;99.90;;;;;;10419734;28;20044;-87
2022/06/10 13:53:53;;;;;;;7.45;5.93;;;21.00;99.90;;;;;;10418446;28;20358;-88
2022/06/10 13:58:56;;;;;;;6.68;5.38;;;20.90;99.90;;;;;;10410100;28;20021;-87
2022/06/10 14:04:09;;;;;;;6.30;5.70;;;20.90;99.90;;;;;;10433838;28;20051;-88
2022/06/10 14:09:25;;;;;;;6.35;5.65;;;20.90;99.90;;;;;;10415584;28;20063;-86
2022/06/10 14:14:26;;;;;;;7.07;5.28;;;21.00;99.90;;;;;;10438603;28;20107;-87
2022/06/10 14:19:28;;;;;;;5.80;5.18;;;21.00;99.90;;;;;;10413804;28;20060;-88
2022/06/10 14:24:31;;;;;;;4.20;3.80;;;21.00;99.90;;;;;;10427933;28;20041;-89
2022/06/10 14:29:45;;;;;;;5.03;3.88;;;20.80;99.90;;;;;;10433586;28;20029;-88
2022/06/10 14:34:49;;;;;;;5.30;3.37;;;20.40;99.90;;;;;;10433434;28;20071;-87
2022/06/10 14:40:05;;;;;;;3.72;3.28;;;20.40;99.90;;;;;;10424551;28;20025;-88
2022/06/10 14:45:25;;;;;;;4.72;3.13;;;20.40;99.90;;;;;;10432943;28;20032;-87
2022/06/10 14:50:25;;;;;;;4.47;3.30;;;20.60;99.90;;;;;;10443769;28;20558;-86
2022/06/10 14:55:32;;;;;;;4.55;2.90;;;20.70;99.90;;;;;;10419657;28;20101;-88
2022/06/10 15:00:35;;;;;;;3.63;2.88;;;20.70;99.90;;;;;;10413483;28;20422;-92
2022/06/10 15:10:56;;;;;;;3.72;2.92;;;20.80;99.90;;;;;;10430698;28;20052;-89
2022/06/10 15:15:57;;;;;;;3.08;2.60;;;20.80;99.90;;;;;;10411659;28;20057;-87
2022/06/10 15:21:01;;;;;;;5.18;2.88;;;20.90;99.90;;;;;;10428599;28;20507;-91
2022/06/10 15:26:02;;;;;;;2.72;2.40;;;20.90;99.90;;;;;;10417022;28;20064;-88
2022/06/10 15:31:06;;;;;;;36.45;15.25;;;21.00;99.90;;;;;;10413196;28;20440;-89
2022/06/10 15:41:38;;;;;;;6.00;2.90;;;21.30;99.90;;;;;;10404606;28;20508;-86
2022/06/10 15:46:41;;;;;;;4.68;3.10;;;21.30;99.90;;;;;;10421565;28;20037;-89
2022/06/10 15:51:48;;;;;;;3.70;3.17;;;21.30;99.90;;;;;;10408315;28;20029;-87
2022/06/10 15:57:09;;;;;;;3.15;2.70;;;21.20;99.90;;;;;;10419340;28;20397;-88
2022/06/10 16:02:20;;;;;;;7.00;3.53;;;21.20;99.90;;;;;;10416571;28;20427;-88
2022/06/10 16:07:23;;;;;;;5.30;3.55;;;21.10;99.90;;;;;;10419538;28;20043;-87
2022/06/10 16:17:51;;;;;;;3.47;2.72;;;20.80;99.90;;;;;;10413143;28;20045;-90
2022/06/10 16:22:52;;;;;;;3.50;3.20;;;20.70;99.90;;;;;;10442549;28;20827;-90
2022/06/10 16:27:56;;;;;;;3.85;3.30;;;20.70;99.90;;;;;;10409856;28;20038;-88
2022/06/10 16:32:59;;;;;;;3.85;3.25;;;20.60;99.90;;;;;;10415089;28;20440;-87
2022/06/10 16:37:59;;;;;;;5.10;3.35;;;20.70;99.90;;;;;;10411688;28;20045;-88
2022/06/10 16:43:00;;;;;;;5.55;3.50;;;20.70;99.90;;;;;;10415553;28;20025;-88
2022/06/10 16:48:01;;;;;;;4.25;3.25;;;20.70;99.90;;;;;;10418345;28;20064;-88
2022/06/10 16:53:01;;;;;;;3.28;2.97;;;20.80;99.90;;;;;;10424995;28;20037;-90
2022/06/10 16:58:02;;;;;;;4.05;3.38;;;20.80;99.90;;;;;;10410110;28;20045;-87
2022/06/10 17:03:05;;;;;;;4.25;3.28;;;20.80;99.90;;;;;;10422906;28;20021;-87
2022/06/10 17:08:05;;;;;;;4.53;3.72;;;20.80;99.90;;;;;;10436715;28;20032;-87
2022/06/10 17:13:07;;;;;;;4.18;3.08;;;20.70;99.90;;;;;;10432464;28;20491;-86
2022/06/10 17:18:13;;;;;;;4.32;3.60;;;20.50;99.90;;;;;;10424111;28;20049;-86
2022/06/10 17:23:18;;;;;;;5.53;3.72;;;20.40;99.90;;;;;;10419998;28;20357;-88
2022/06/10 17:28:21;;;;;;;4.30;3.35;;;20.30;99.90;;;;;;10432526;28;20029;-88
2022/06/10 17:33:25;;;;;;;4.93;3.75;;;20.20;99.90;;;;;;10427145;28;20645;-87
2022/06/10 17:38:32;;;;;;;5.07;4.23;;;20.20;99.90;;;;;;10430703;28;20029;-86
2022/06/10 17:43:42;;;;;;;4.55;3.80;;;20.10;99.90;;;;;;10413048;28;20345;-85
2022/06/10 17:48:42;;;;;;;6.35;3.95;;;20.00;99.90;;;;;;10420231;28;20034;-87
2022/06/10 17:53:43;;;;;;;5.07;4.20;;;20.10;99.90;;;;;;10426765;28;20052;-90
2022/06/10 17:58:44;;;;;;;4.97;3.90;;;20.10;99.90;;;;;;10419490;28;20021;-86
2022/06/10 18:03:44;;;;;;;4.78;4.38;;;20.10;99.90;;;;;;10418699;28;20132;-89
2022/06/10 18:08:45;;;;;;;6.88;4.55;;;20.10;99.90;;;;;;10417984;28;20028;-86
2022/06/10 18:19:26;;;;;;;5.32;4.43;;;20.10;99.90;;;;;;10408310;28;20412;-89
2022/06/10 18:24:28;;;;;;;7.72;5.05;;;19.90;99.90;;;;;;10427229;28;20037;-86
2022/06/10 18:29:45;;;;;;;7.07;4.88;;;19.70;99.90;;;;;;10416055;28;20135;-86
2022/06/10 18:34:48;;;;;;;8.48;5.00;;;19.60;99.90;;;;;;10417661;28;20040;-86
2022/06/10 18:39:50;;;;;;;8.45;5.25;;;19.30;99.90;;;;;;10408471;28;20052;-86
2022/06/10 18:44:51;;;;;;;8.40;6.05;;;19.10;99.90;;;;;;10410078;28;20033;-87
2022/06/10 18:49:51;;;;;;;7.95;5.88;;;18.80;99.90;;;;;;10414543;28;20025;-86
2022/06/10 18:54:56;;;;;;;11.05;5.88;;;18.40;99.90;;;;;;10457973;23;20056;-85
2022/06/10 18:59:57;;;;;;;8.68;6.22;;;18.20;99.90;;;;;;10489924;28;20024;-86
2022/06/10 19:04:59;;;;;;;9.68;6.80;;;17.90;99.90;;;;;;10494872;28;20032;-85
2022/06/10 19:10:00;;;;;;;9.35;7.38;;;17.50;99.90;;;;;;10477837;28;20017;-85
2022/06/10 19:15:00;;;;;;;10.95;7.60;;;17.30;99.90;;;;;;10487447;28;20037;-86
2022/06/10 19:20:23;;;;;;;7.38;5.95;;;17.10;99.90;;;;;;10463924;28;20411;-86
2022/06/10 19:25:39;;;;;;;7.50;6.70;;;17.00;99.90;;;;;;10467409;28;20044;-87
2022/06/10 19:30:41;;;;;;;8.00;6.13;;;16.90;99.90;;;;;;10483308;28;20112;-86
2022/06/10 19:35:44;;;;;;;12.35;7.30;;;16.70;99.90;;;;;;10481879;28;20060;-89
2022/06/10 19:40:47;;;;;;;10.60;7.75;;;16.60;99.90;;;;;;10484164;28;20024;-87
2022/06/10 19:45:53;;;;;;;11.38;7.53;;;16.50;99.90;;;;;;10479320;28;20114;-84
2022/06/10 19:50:59;;;;;;;8.27;6.80;;;16.50;99.90;;;;;;10481651;28;20035;-82
2022/06/10 19:56:04;;;;;;;7.28;6.10;;;16.40;99.90;;;;;;10492423;28;20117;-85
2022/06/10 20:01:42;;;;;;;10.70;7.53;;;16.40;99.90;;;;;;10485739;28;20029;-85
2022/06/10 20:06:42;;;;;;;9.88;7.57;;;16.30;99.90;;;;;;10492468;28;20036;-86
2022/06/10 20:11:43;;;;;;;10.15;6.25;;;16.20;99.90;;;;;;10484912;28;20024;-86
2022/06/10 20:16:44;;;;;;;9.35;7.78;;;16.10;99.90;;;;;;10490001;28;20053;-84
2022/06/10 20:21:46;;;;;;;8.70;7.80;;;16.10;99.90;;;;;;10488338;28;20024;-89
2022/06/10 20:26:48;;;;;;;10.05;7.40;;;16.00;99.90;;;;;;10488846;28;20089;-85
2022/06/10 20:31:54;;;;;;;9.43;8.07;;;15.90;99.90;;;;;;10490806;28;20016;-82
2022/06/10 20:36:54;;;;;;;9.38;8.38;;;15.90;99.90;;;;;;10482987;28;20028;-89
2022/06/10 20:41:55;;;;;;;10.43;7.47;;;15.80;99.90;;;;;;10487936;28;20037;-89
2022/06/10 20:47:01;;;;;;;10.40;6.75;;;15.70;99.90;;;;;;10487566;28;20036;-88
2022/06/10 20:52:04;;;;;;;8.05;6.95;;;15.60;99.90;;;;;;10481978;28;20501;-85
2022/06/10 20:57:10;;;;;;;12.55;7.80;;;15.50;99.90;;;;;;10488464;28;20053;-86
2022/06/10 21:02:16;;;;;;;8.93;6.47;;;15.40;99.90;;;;;;10481658;28;20160;-87
2022/06/10 21:07:29;;;;;;;8.82;7.45;;;15.20;99.90;;;;;;10492511;28;20039;-86
2022/06/10 21:12:30;;;;;;;8.27;6.28;;;15.10;99.90;;;;;;10471322;28;20035;-88
2022/06/10 21:17:37;;;;;;;10.30;7.50;;;14.90;99.90;;;;;;10461000;28;20047;-84
2022/06/10 21:22:38;;;;;;;10.30;6.53;;;14.80;99.90;;;;;;10482911;23;20420;-90
2022/06/10 21:27:38;;;;;;;7.65;6.22;;;14.70;99.90;;;;;;10450040;28;20033;-85
2022/06/10 21:32:40;;;;;;;8.10;7.05;;;14.70;99.90;;;;;;10441630;28;20104;-86
2022/06/10 21:37:41;;;;;;;8.85;7.30;;;14.60;99.90;;;;;;10439878;28;20065;-87
2022/06/10 21:48:05;;;;;;;8.88;7.15;;;14.40;99.90;;;;;;10438404;28;20405;-85
2022/06/10 21:53:21;;;;;;;11.45;6.97;;;14.40;99.90;;;;;;10447659;28;20087;-87
2022/06/10 21:58:27;;;;;;;8.52;7.15;;;14.30;99.90;;;;;;10477936;22;20060;-84
2022/06/10 22:03:31;;;;;;;10.93;8.05;;;14.30;99.90;;;;;;10487979;28;20025;-83
2022/06/10 22:08:32;;;;;;;10.30;7.78;;;14.20;99.90;;;;;;10488810;28;20043;-83
2022/06/10 22:13:32;;;;;;;14.02;9.40;;;14.20;99.90;;;;;;10494181;28;20039;-83
2022/06/10 22:18:36;;;;;;;11.48;8.93;;;14.10;99.90;;;;;;10430597;28;20116;-85
2022/06/10 22:23:37;;;;;;;9.23;7.97;;;14.10;99.90;;;;;;10425054;28;20380;-85
2022/06/10 22:28:38;;;;;;;10.55;8.80;;;14.00;99.90;;;;;;10439577;28;20044;-83
2022/06/10 22:33:50;;;;;;;11.52;8.90;;;14.00;99.90;;;;;;10445694;28;20173;-83
2022/06/10 22:38:53;;;;;;;10.20;6.68;;;13.90;99.90;;;;;;10433451;28;20032;-87
2022/06/10 22:43:54;;;;;;;8.60;6.93;;;13.90;99.90;;;;;;10441795;28;20026;-85
2022/06/10 22:48:58;;;;;;;8.85;6.93;;;13.80;99.90;;;;;;10445761;28;20057;-88
2022/06/10 22:53:59;;;;;;;10.18;6.78;;;13.80;99.90;;;;;;10438184;28;20044;-84
2022/06/10 22:59:00;;;;;;;9.13;6.95;;;13.80;99.90;;;;;;10443034;28;20057;-83
2022/06/10 23:14:52;;;;;;;11.60;8.25;;;13.60;99.90;;;;;;10444656;28;20060;-85
2022/06/10 23:19:58;;;;;;;12.80;8.57;;;13.60;99.90;;;;;;10415900;28;20065;-85
2022/06/10 23:24:59;;;;;;;14.13;8.98;;;13.60;99.90;;;;;;10430027;28;20110;-86
2022/06/10 23:30:00;;;;;;;14.85;9.32;;;13.60;99.90;;;;;;10443601;28;20134;-90
2022/06/10 23:35:06;;;;;;;13.75;9.15;;;13.50;99.90;;;;;;10452108;28;20032;-89
2022/06/10 23:40:17;;;;;;;13.90;9.45;;;13.50;99.90;;;;;;10431308;28;20029;-87
2022/06/10 23:45:19;;;;;;;12.23;9.32;;;13.40;99.90;;;;;;10456811;28;20032;-85
2022/06/10 23:50:26;;;;;;;16.63;10.82;;;13.30;99.90;;;;;;10431774;28;20029;-89
